Time;durP1;ratioP1;P1;durP2;ratioP2;P2;SDS_P1;SDS_P2;PMS_P1;PMS_P2;Temp;Humidity;BMP_temperature;BMP_pressure;BME280_temperature;BME280_humidity;BME280_pressure;Samples;Min_cycle;Max_cycle;Signal;HPM_P1;HPM_P2
2023/09/03 00:00:14;;;;;;;5.10;3.83;;;;;;;17.85;74.47;98460.06;10485417;28;20124;-65
2023/09/03 00:05:56;;;;;;;3.90;3.45;;;;;;;17.86;74.77;98455.19;10446792;28;20434;-66
2023/09/03 00:11:18;;;;;;;4.43;3.42;;;;;;;17.82;74.63;98452.88;10458216;28;20045;-65
2023/09/03 00:16:38;;;;;;;4.82;3.42;;;;;;;17.74;74.91;98458.09;10429770;28;20503;-68
2023/09/03 00:21:59;;;;;;;5.25;3.60;;;;;;;17.74;75.21;98461.66;10443436;28;20099;-66
2023/09/03 00:27:21;;;;;;;3.78;3.30;;;;;;;17.79;75.34;98467.53;10429796;28;20120;-66
2023/09/03 00:32:42;;;;;;;3.83;3.25;;;;;;;17.78;75.24;98466.78;10443591;28;20462;-66
2023/09/03 00:38:03;;;;;;;3.85;3.15;;;;;;;17.78;75.53;98454.78;10457608;28;20582;-66
2023/09/03 00:43:24;;;;;;;4.60;3.72;;;;;;;17.78;75.68;98443.47;10457458;28;20122;-66
2023/09/03 00:48:44;;;;;;;5.85;3.65;;;;;;;17.73;75.53;98451.72;10442141;28;20076;-66
2023/09/03 00:54:05;;;;;;;4.90;3.60;;;;;;;17.74;75.67;98447.53;10428562;28;20065;-66
2023/09/03 00:59:26;;;;;;;3.88;3.47;;;;;;;17.71;75.88;98465.75;10442023;28;20128;-66
2023/09/03 01:04:46;;;;;;;4.20;3.58;;;;;;;17.72;75.82;98464.38;10428337;28;20092;-67
2023/09/03 01:10:07;;;;;;;6.43;3.53;;;;;;;17.77;75.74;98476.63;10442408;28;20060;-66
2023/09/03 01:15:29;;;;;;;5.88;3.60;;;;;;;17.85;75.69;98485.50;10441720;28;20439;-65
2023/09/03 01:21:00;;;;;;;7.60;4.25;;;;;;;17.76;75.48;98486.47;10442851;28;20072;-65
2023/09/03 01:26:35;;;;;;;4.93;3.42;;;;;;;17.69;75.39;98485.41;10464986;28;20194;-66
2023/09/03 01:31:56;;;;;;;4.28;3.35;;;;;;;17.66;75.62;98494.34;10450641;28;20727;-66
2023/09/03 01:37:17;;;;;;;5.03;3.35;;;;;;;17.65;75.81;98490.06;10449937;28;20442;-66
2023/09/03 01:42:38;;;;;;;3.33;2.60;;;;;;;17.65;75.66;98476.69;10449512;28;20124;-66
2023/09/03 01:48:15;;;;;;;3.47;2.85;;;;;;;17.63;75.86;98478.69;10449327;28;20119;-66
2023/09/03 01:53:48;;;;;;;4.28;3.13;;;;;;;17.59;76.07;98465.09;10436634;28;20072;-66
2023/09/03 01:59:18;;;;;;;4.50;2.95;;;;;;;17.57;76.22;98465.00;10449266;28;20166;-66
2023/09/03 02:04:39;;;;;;;3.90;3.10;;;;;;;17.52;76.15;98471.06;10391897;28;20073;-65
2023/09/03 02:09:59;;;;;;;5.55;2.70;;;;;;;17.46;75.91;98472.19;10407736;28;20141;-66
2023/09/03 02:15:20;;;;;;;4.97;2.72;;;;;;;17.30;76.10;98470.63;10393357;28;20116;-67
2023/09/03 02:20:41;;;;;;;3.45;3.03;;;;;;;17.23;76.62;98468.84;10421883;28;20102;-66
2023/09/03 02:26:02;;;;;;;3.55;3.20;;;;;;;17.15;76.51;98467.03;10421543;28;20069;-66
2023/09/03 02:31:22;;;;;;;5.13;2.88;;;;;;;17.10;76.75;98470.28;10420346;28;20120;-66
2023/09/03 02:36:43;;;;;;;4.05;2.67;;;;;;;17.04;76.88;98473.50;10419330;28;20564;-67
2023/09/03 02:42:04;;;;;;;5.38;2.92;;;;;;;17.03;77.19;98476.94;10406346;28;20045;-67
2023/09/03 02:47:27;;;;;;;3.13;2.63;;;;;;;17.09;76.96;98488.56;10419810;28;20475;-67
2023/09/03 02:52:51;;;;;;;3.28;2.78;;;;;;;17.14;77.10;98493.06;10419539;28;20462;-67
2023/09/03 02:58:12;;;;;;;5.80;3.50;;;;;;;17.21;77.08;98480.75;10420737;28;20456;-67
2023/09/03 03:03:33;;;;;;;3.90;2.63;;;;;;;17.19;76.54;98471.47;10439619;28;20084;-67
2023/09/03 03:08:54;;;;;;;4.68;2.85;;;;;;;17.05;76.98;98477.78;10432592;28;20539;-67
2023/09/03 03:14:15;;;;;;;3.45;2.78;;;;;;;16.90;77.23;98478.41;10460683;28;20037;-67
2023/09/03 03:19:36;;;;;;;5.40;3.47;;;;;;;16.82;77.50;98473.03;10445728;28;20044;-67
2023/09/03 03:24:57;;;;;;;5.53;3.05;;;;;;;16.75;77.49;98476.88;10460352;28;20534;-67
2023/09/03 03:30:18;;;;;;;4.13;2.90;;;;;;;16.66;77.82;98486.22;10445270;28;20061;-67
2023/09/03 03:35:41;;;;;;;4.13;3.45;;;;;;;16.59;78.30;98487.22;10444964;28;20152;-66
2023/09/03 03:41:15;;;;;;;4.32;3.30;;;;;;;16.58;78.59;98482.94;10458861;28;20072;-67
2023/09/03 03:46:37;;;;;;;3.90;2.85;;;;;;;16.51;78.45;98486.78;10443840;28;20073;-67
2023/09/03 03:51:58;;;;;;;5.00;3.42;;;;;;;16.40;78.79;98493.19;10430383;28;20044;-67
2023/09/03 03:57:19;;;;;;;3.58;2.88;;;;;;;16.27;78.89;98478.41;10459191;28;20121;-67
2023/09/03 04:02:40;;;;;;;3.92;3.53;;;;;;;16.22;79.58;98481.63;10444039;28;20124;-67
2023/09/03 04:08:01;;;;;;;3.90;3.28;;;;;;;16.19;79.58;98492.03;10443891;28;20087;-66
2023/09/03 04:13:21;;;;;;;4.03;3.10;;;;;;;16.21;80.05;98492.16;10457569;28;20459;-67
2023/09/03 04:18:43;;;;;;;5.97;3.72;;;;;;;16.24;79.39;98502.19;10443442;28;20069;-66
2023/09/03 04:24:06;;;;;;;4.15;3.42;;;;;;;16.22;79.70;98507.72;10443764;28;20121;-67
2023/09/03 04:29:27;;;;;;;3.45;3.15;;;;;;;16.26;80.06;98510.75;10443326;28;20077;-67
2023/09/03 04:34:48;;;;;;;4.70;3.28;;;;;;;16.39;79.86;98511.44;10442936;28;20048;-67
2023/09/03 04:40:10;;;;;;;4.63;3.20;;;;;;;16.49;79.87;98507.09;10442699;28;20041;-67
2023/09/03 04:45:31;;;;;;;5.38;3.97;;;;;;;16.63;79.86;98509.28;10442296;28;20082;-67
2023/09/03 04:50:53;;;;;;;3.53;2.70;;;;;;;16.82;79.67;98495.59;10429034;28;20183;-67
2023/09/03 04:56:14;;;;;;;4.20;3.47;;;;;;;17.05;79.44;98502.44;10427884;28;20111;-67
2023/09/03 05:01:37;;;;;;;;;;;;;;;17.28;78.86;98507.94;10430102;28;20554;-68
2023/09/03 05:07:02;;;;;;;3.83;2.50;;;;;;;17.45;78.55;98510.25;10456315;28;20004;-67
2023/09/03 05:12:23;;;;;;;3.88;2.95;;;;;;;17.67;78.17;98515.63;10441603;28;20172;-67
2023/09/03 05:17:44;;;;;;;4.00;2.50;;;;;;;17.94;77.75;98529.72;10427774;28;20048;-67
2023/09/03 05:23:05;;;;;;;3.63;2.72;;;;;;;18.49;76.74;98512.69;10441571;28;20125;-67
2023/09/03 05:28:26;;;;;;;3.80;2.85;;;;;;;18.60;75.93;98511.81;10427531;28;20118;-67
2023/09/03 05:33:47;;;;;;;3.03;2.63;;;;;;;18.57;75.97;98515.91;10441537;28;20175;-67
2023/09/03 05:39:07;;;;;;;3.83;2.95;;;;;;;18.56;76.11;98517.28;10441660;28;20478;-67
2023/09/03 05:44:28;;;;;;;4.43;3.45;;;;;;;18.58;75.73;98525.84;10441154;28;20428;-67
2023/09/03 05:49:54;;;;;;;4.57;3.40;;;;;;;18.60;75.64;98525.94;10454989;28;20065;-67
2023/09/03 05:55:15;;;;;;;4.78;3.55;;;;;;;18.76;75.28;98536.63;10440868;28;20073;-67
2023/09/03 06:00:39;;;;;;;4.10;3.35;;;;;;;19.03;74.84;98521.63;10440927;28;20122;-67
2023/09/03 06:06:10;;;;;;;5.47;3.33;;;;;;;19.45;74.38;98534.88;10440842;28;20057;-67
2023/09/03 06:11:35;;;;;;;4.18;3.15;;;;;;;19.92;73.34;98536.97;10447762;28;20123;-67
2023/09/03 06:16:56;;;;;;;4.22;3.03;;;;;;;20.27;71.77;98539.19;10463286;28;20452;-68
2023/09/03 06:22:16;;;;;;;3.60;3.10;;;;;;;20.49;70.69;98536.56;10462768;28;20127;-67
2023/09/03 06:27:37;;;;;;;6.55;3.75;;;;;;;20.92;70.48;98557.41;10462711;28;20134;-67
2023/09/03 06:32:58;;;;;;;4.43;2.67;;;;;;;21.27;69.46;98574.44;10462609;28;20124;-67
2023/09/03 06:38:19;;;;;;;3.90;2.53;;;;;;;22.56;69.00;98586.19;10447412;28;20454;-67
2023/09/03 06:43:40;;;;;;;2.60;2.30;;;;;;;25.37;65.59;98588.41;10447435;28;20088;-67
2023/09/03 06:49:01;;;;;;;2.35;2.08;;;;;;;27.75;59.57;98594.09;10461878;28;20120;-67
2023/09/03 06:54:21;;;;;;;3.90;2.15;;;;;;;32.36;53.51;98620.38;10461674;28;20069;-68
2023/09/03 06:59:42;;;;;;;2.53;1.77;;;;;;;41.24;37.44;98616.88;10461199;28;20061;-68
2023/09/03 07:05:03;;;;;;;;;;;;;;;45.72;20.20;98623.81;10461362;28;20049;-71
2023/09/03 07:10:24;;;;;;;1.63;1.10;;;;;;;43.26;20.27;98638.28;10460197;28;19971;-71
2023/09/03 07:15:44;;;;;;;1.20;1.10;;;;;;;39.47;24.45;98636.78;10445709;28;20570;-70
2023/09/03 07:21:06;;;;;;;3.72;1.67;;;;;;;41.06;23.46;98636.63;10445677;28;20120;-71
2023/09/03 07:26:27;;;;;;;2.95;1.65;;;;;;;42.74;20.53;98645.22;10460324;28;20064;-70
2023/09/03 07:31:48;;;;;;;1.35;1.00;;;;;;;43.73;20.10;98644.72;10445806;28;20037;-71
2023/09/03 07:37:09;;;;;;;0.90;0.80;;;;;;;47.08;17.08;98669.78;10444916;28;20041;-71
2023/09/03 07:42:30;;;;;;;1.40;1.30;;;;;;;42.49;19.39;98674.31;10445066;28;20056;-71
2023/09/03 07:47:51;;;;;;;2.85;1.00;;;;;;;43.97;16.50;98661.03;10459483;28;20073;-70
2023/09/03 07:53:12;;;;;;;2.28;1.02;;;;;;;42.98;19.33;98642.66;10459279;28;20490;-72
2023/09/03 07:58:32;;;;;;;1.90;0.50;;;;;;;51.31;14.38;98648.97;10430712;28;20049;-72
2023/09/03 08:03:53;;;;;;;1.38;0.70;;;;;;;47.71;13.30;98657.38;10458751;28;20072;-72
2023/09/03 08:09:14;;;;;;;2.40;0.70;;;;;;;40.38;17.29;98667.09;10444290;28;20045;-71
2023/09/03 08:14:36;;;;;;;1.45;0.80;;;;;;;37.57;20.41;98657.88;10458354;28;20124;-71
2023/09/03 08:19:57;;;;;;;1.25;0.88;;;;;;;36.97;21.77;98655.75;10458793;28;20052;-71
2023/09/03 08:25:19;;;;;;;2.30;0.75;;;;;;;36.86;22.60;98646.53;10443153;28;20076;-71
2023/09/03 08:30:40;;;;;;;1.30;0.73;;;;;;;38.80;22.18;98635.38;10442654;28;20124;-70
2023/09/03 08:36:01;;;;;;;1.23;0.88;;;;;;;40.75;20.78;98648.84;10457890;28;20455;-70
2023/09/03 08:41:22;;;;;;;3.92;1.05;;;;;;;40.15;19.79;98654.81;10456409;28;20151;-71
2023/09/03 08:46:44;;;;;;;1.35;0.60;;;;;;;38.00;21.72;98645.78;10457468;28;20119;-70
2023/09/03 08:52:05;;;;;;;2.88;0.82;;;;;;;36.79;22.74;98642.34;10428337;28;20556;-70
2023/09/03 08:57:27;;;;;;;1.73;0.90;;;;;;;35.92;24.36;98633.31;10428593;28;20408;-69
2023/09/03 09:02:48;;;;;;;0.80;0.60;;;;;;;37.69;23.03;98652.44;10457120;28;20085;-71
2023/09/03 09:08:09;;;;;;;2.10;0.77;;;;;;;38.65;22.16;98655.50;10441956;28;20522;-70
2023/09/03 09:13:30;;;;;;;1.15;0.70;;;;;;;40.99;20.39;98644.22;10441797;28;20065;-71
2023/09/03 09:18:50;;;;;;;2.20;0.57;;;;;;;41.39;19.14;98652.81;10427719;28;20116;-71
2023/09/03 09:24:11;;;;;;;0.98;0.47;;;;;;;43.25;17.57;98656.72;10456447;28;20045;-71
2023/09/03 09:29:32;;;;;;;1.30;0.50;;;;;;;44.23;16.63;98652.31;10441641;28;20495;-71
2023/09/03 09:34:53;;;;;;;0.57;0.40;;;;;;;45.96;16.40;98651.09;10456104;28;20045;-72
2023/09/03 09:40:15;;;;;;;1.25;0.55;;;;;;;46.35;14.61;98645.75;10441075;28;20040;-71
2023/09/03 09:45:46;;;;;;;0.88;0.60;;;;;;;42.30;15.86;98656.88;10433740;28;20052;-70
2023/09/03 09:51:07;;;;;;;0.85;0.60;;;;;;;37.73;20.08;98657.44;10435259;28;20064;-69
2023/09/03 09:56:29;;;;;;;1.17;0.55;;;;;;;36.62;22.00;98665.25;10435064;28;20049;-70
2023/09/03 10:01:50;;;;;;;1.73;0.63;;;;;;;35.77;23.85;98655.38;10463655;28;20134;-71
2023/09/03 10:07:11;;;;;;;2.83;0.70;;;;;;;40.14;20.68;98656.31;10463849;28;20175;-70
2023/09/03 10:12:32;;;;;;;2.50;0.40;;;;;;;42.86;18.06;98649.81;10448630;28;20101;-71
2023/09/03 10:17:53;;;;;;;1.38;0.40;;;;;;;39.58;18.53;98648.13;10438218;28;20076;-72
2023/09/03 10:23:16;;;;;;;1.00;0.40;;;;;;;41.06;18.97;98650.56;10450427;28;20049;-71
2023/09/03 10:28:39;;;;;;;2.17;0.40;;;;;;;42.57;17.43;98642.41;10424845;28;20045;-71
2023/09/03 10:34:00;;;;;;;0.57;0.30;;;;;;;45.23;17.21;98638.53;10446162;28;20056;-72
2023/09/03 10:39:21;;;;;;;0.70;0.40;;;;;;;50.04;13.31;98655.69;10445824;28;20116;-72
2023/09/03 10:44:50;;;;;;;0.85;0.35;;;;;;;48.08;12.41;98637.75;10402551;28;20057;-73
2023/09/03 10:50:12;;;;;;;0.63;0.40;;;;;;;44.54;13.91;98655.00;10445635;28;20052;-72
2023/09/03 10:55:33;;;;;;;1.83;0.77;;;;;;;39.97;17.72;98624.78;10461188;28;20376;-72
2023/09/03 11:01:15;;;;;;;1.17;0.55;;;;;;;41.70;17.55;98625.88;10445136;28;20120;-72
2023/09/03 11:06:36;;;;;;;1.23;0.82;;;;;;;43.34;15.52;98637.19;10461219;28;20049;-72
2023/09/03 11:11:59;;;;;;;2.47;0.90;;;;;;;38.01;18.54;98638.47;10445015;28;20041;-73
2023/09/03 11:17:20;;;;;;;2.08;0.80;;;;;;;35.52;23.50;98629.00;10460367;28;20044;-75
2023/09/03 11:22:41;;;;;;;2.63;0.93;;;;;;;35.95;22.33;98628.91;10461013;28;20073;-76
2023/09/03 11:28:07;;;;;;;1.35;1.10;;;;;;;33.83;26.87;98646.63;10416886;28;20052;-81
2023/09/03 11:33:29;;;;;;;2.15;0.95;;;;;;;37.09;22.17;98643.81;10426507;28;20041;-82
2023/09/03 11:38:55;;;;;;;0.75;0.63;;;;;;;38.63;19.53;98641.00;10417761;28;20045;-69
2023/09/03 11:44:21;;;;;;;1.67;0.98;;;;;;;37.78;19.23;98639.09;10441616;28;20483;-69
2023/09/03 11:49:47;;;;;;;1.08;0.98;;;;;;;35.61;21.83;98636.06;10433024;28;20042;-68
2023/09/03 11:55:09;;;;;;;2.05;1.20;;;;;;;34.75;22.71;98633.88;10402684;28;20065;-68
2023/09/03 12:00:30;;;;;;;1.65;1.20;;;;;;;32.93;25.30;98637.38;10418271;28;20046;-68
2023/09/03 12:05:51;;;;;;;2.17;1.27;;;;;;;31.50;27.91;98646.63;10387990;28;20601;-68
2023/09/03 12:11:12;;;;;;;2.30;0.88;;;;;;;31.37;28.77;98641.63;10417492;28;20049;-67
2023/09/03 12:16:44;;;;;;;1.58;1.00;;;;;;;31.05;29.63;98643.03;10416960;28;20088;-67
2023/09/03 12:22:05;;;;;;;2.10;1.30;;;;;;;30.82;29.91;98642.31;10402218;28;20533;-68
2023/09/03 12:27:26;;;;;;;2.50;1.43;;;;;;;29.80;31.53;98644.09;10393665;28;20045;-66
2023/09/03 12:32:47;;;;;;;2.10;1.30;;;;;;;28.60;33.32;98660.38;10415629;28;20459;-66
2023/09/03 12:38:07;;;;;;;2.45;1.52;;;;;;;28.07;34.53;98651.88;10407839;28;20070;-65
2023/09/03 12:43:36;;;;;;;1.57;1.10;;;;;;;28.26;34.88;98652.09;10407496;28;20084;-73
2023/09/03 12:48:57;;;;;;;1.83;1.10;;;;;;;28.52;33.98;98663.91;10375463;28;20049;-71
2023/09/03 12:54:19;;;;;;;2.25;1.20;;;;;;;28.57;33.41;98664.66;10366241;28;20128;-71
2023/09/03 12:59:40;;;;;;;3.00;1.00;;;;;;;28.07;33.77;98651.88;10384997;28;20510;-74
2023/09/03 13:05:01;;;;;;;1.60;1.05;;;;;;;27.93;34.05;98649.56;10429966;28;20151;-74
2023/09/03 13:10:21;;;;;;;1.50;1.25;;;;;;;28.64;33.74;98658.28;10442121;28;20048;-71
2023/09/03 13:15:43;;;;;;;2.63;1.33;;;;;;;28.48;33.79;98661.72;10454827;28;20045;-74
2023/09/03 13:21:04;;;;;;;2.30;1.27;;;;;;;28.69;33.65;98656.91;10427280;28;20065;-73
2023/09/03 13:26:24;;;;;;;1.73;1.15;;;;;;;28.93;33.33;98659.28;10439632;28;20329;-78
2023/09/03 13:31:45;;;;;;;2.45;1.02;;;;;;;29.07;32.66;98665.19;10422845;28;20065;-72
2023/09/03 13:37:06;;;;;;;2.35;1.42;;;;;;;28.93;32.08;98656.41;10438594;28;20559;-75
2023/09/03 13:42:27;;;;;;;1.83;1.08;;;;;;;28.50;32.43;98658.13;10419390;28;20117;-74
2023/09/03 13:47:48;;;;;;;2.65;1.20;;;;;;;28.14;32.92;98655.53;10440571;28;20076;-82
2023/09/03 13:53:09;;;;;;;1.97;1.07;;;;;;;27.97;33.48;98645.28;10412015;28;20120;-75
2023/09/03 13:58:30;;;;;;;2.03;1.30;;;;;;;27.67;32.78;98647.06;10439393;28;20143;-79
2023/09/03 14:03:50;;;;;;;2.83;1.35;;;;;;;27.81;33.08;98645.81;10424977;28;20077;-77
2023/09/03 14:09:11;;;;;;;2.05;1.10;;;;;;;28.12;32.54;98653.38;10436719;28;20072;-80
2023/09/03 14:14:32;;;;;;;3.15;1.27;;;;;;;27.93;31.91;98648.84;10425633;28;20124;-78
2023/09/03 14:19:53;;;;;;;2.65;1.30;;;;;;;27.62;32.57;98657.00;10440525;28;20072;-78
2023/09/03 14:25:14;;;;;;;5.65;1.63;;;;;;;27.14;33.79;98662.00;10440441;28;20063;-79
2023/09/03 14:30:36;;;;;;;2.53;1.10;;;;;;;26.67;34.90;98658.31;10458818;28;20117;-78
2023/09/03 14:35:57;;;;;;;;;;;;;;;26.32;35.66;98662.59;10408148;28;20044;-79
2023/09/03 14:41:18;;;;;;;1.92;1.30;;;;;;;25.90;36.45;98663.19;10406124;28;19949;-77
2023/09/03 14:46:38;;;;;;;2.58;1.50;;;;;;;25.57;37.25;98667.44;10406206;28;20072;-77
2023/09/03 14:51:59;;;;;;;2.65;1.50;;;;;;;25.18;37.45;98674.38;10405806;28;20052;-76
2023/09/03 14:57:20;;;;;;;2.38;1.30;;;;;;;24.95;38.25;98685.22;10407576;28;20069;-80
2023/09/03 15:02:41;;;;;;;2.45;1.25;;;;;;;24.90;38.37;98682.94;10407217;28;20088;-77
2023/09/03 15:08:03;;;;;;;7.87;1.60;;;;;;;24.61;39.06;98685.06;10419346;28;20046;-81
2023/09/03 15:13:23;;;;;;;3.03;1.40;;;;;;;24.53;39.40;98687.69;10405150;28;20291;-80
2023/09/03 15:18:44;;;;;;;3.95;1.48;;;;;;;24.68;39.18;98694.50;10418691;28;20472;-81
2023/09/03 15:24:05;;;;;;;1.88;1.10;;;;;;;24.67;39.61;98693.78;10438162;28;20037;-76
2023/09/03 15:29:25;;;;;;;1.90;1.10;;;;;;;24.73;39.76;98708.22;10447358;28;20487;-77
2023/09/03 15:34:46;;;;;;;1.95;1.08;;;;;;;24.48;39.92;98717.50;10451428;28;20068;-76
2023/09/03 15:40:08;;;;;;;2.58;1.00;;;;;;;23.96;40.29;98717.41;10446490;28;20044;-74
2023/09/03 15:45:32;;;;;;;1.65;1.00;;;;;;;23.67;40.47;98721.53;10437915;28;20129;-73
2023/09/03 15:50:54;;;;;;;1.58;0.93;;;;;;;23.47;40.79;98718.75;10430583;28;20080;-71
2023/09/03 15:56:15;;;;;;;3.53;0.93;;;;;;;23.29;41.41;98723.84;10430869;28;20060;-72
2023/09/03 16:01:36;;;;;;;3.42;0.90;;;;;;;23.27;41.57;98720.94;10430463;28;20076;-70
2023/09/03 16:06:57;;;;;;;1.75;1.00;;;;;;;23.00;41.93;98722.88;10416754;28;20459;-77
2023/09/03 16:12:18;;;;;;;3.30;1.10;;;;;;;22.94;42.00;98736.91;10428579;28;20521;-81
2023/09/03 16:17:39;;;;;;;3.83;0.95;;;;;;;22.69;42.11;98743.13;10430077;28;20060;-78
2023/09/03 16:23:00;;;;;;;2.08;0.90;;;;;;;22.46;42.25;98744.41;10429334;28;20052;-71
2023/09/03 16:28:21;;;;;;;2.90;1.20;;;;;;;22.31;42.58;98736.78;10457956;28;20040;-72
2023/09/03 16:33:43;;;;;;;4.70;0.90;;;;;;;22.20;43.07;98749.88;10424128;28;20041;-72
2023/09/03 16:39:06;;;;;;;1.88;1.10;;;;;;;22.06;43.34;98746.47;10416430;28;20048;-72
2023/09/03 16:44:27;;;;;;;2.42;1.02;;;;;;;21.85;43.79;98750.63;10401606;28;20061;-67
2023/09/03 16:49:51;;;;;;;3.22;1.30;;;;;;;21.63;44.47;98753.34;10401409;28;20112;-69
2023/09/03 16:55:11;;;;;;;3.17;1.10;;;;;;;21.47;45.22;98747.72;10441667;28;20110;-70
2023/09/03 17:00:32;;;;;;;2.85;1.20;;;;;;;21.12;46.14;98754.06;10428159;28;20445;-70
2023/09/03 17:05:53;;;;;;;4.65;1.30;;;;;;;20.83;46.63;98769.88;10428044;28;20562;-73
2023/09/03 17:11:14;;;;;;;4.82;1.50;;;;;;;20.69;47.55;98771.38;10400646;28;20120;-70
2023/09/03 17:16:35;;;;;;;2.25;1.17;;;;;;;20.52;47.78;98770.66;10414390;28;20065;-68
2023/09/03 17:21:56;;;;;;;2.28;1.10;;;;;;;20.35;48.65;98773.34;10415070;28;20073;-68
2023/09/03 17:27:17;;;;;;;2.75;1.10;;;;;;;20.08;49.29;98785.63;10415267;28;20452;-67
2023/09/03 17:32:38;;;;;;;3.20;1.33;;;;;;;19.95;49.67;98792.78;10372679;28;20119;-67
2023/09/03 17:37:59;;;;;;;1.45;0.95;;;;;;;19.75;50.74;98797.50;10372908;28;20062;-68
2023/09/03 17:43:19;;;;;;;6.00;1.45;;;;;;;19.50;51.26;98804.78;10373508;28;20073;-68
2023/09/03 17:48:40;;;;;;;2.33;0.88;;;;;;;19.37;51.46;98803.44;10372362;28;20049;-68
2023/09/03 17:54:01;;;;;;;2.45;1.10;;;;;;;19.16;51.68;98807.34;10358577;28;20042;-68
2023/09/03 17:59:22;;;;;;;3.95;1.10;;;;;;;18.95;52.30;98787.88;10386732;28;20065;-68
2023/09/03 18:04:42;;;;;;;3.20;0.85;;;;;;;18.81;52.90;98801.28;10430545;28;20124;-64
2023/09/03 18:10:03;;;;;;;2.97;1.23;;;;;;;18.72;53.10;98830.50;10451688;28;20065;-64
2023/09/03 18:15:24;;;;;;;2.47;0.90;;;;;;;18.59;53.35;98841.16;10408459;28;20128;-65
2023/09/03 18:20:45;;;;;;;2.67;1.10;;;;;;;18.47;53.39;98851.09;10421473;28;20067;-66
2023/09/03 18:26:09;;;;;;;3.40;1.10;;;;;;;18.39;53.72;98850.63;10420132;28;20045;-66
2023/09/03 18:31:30;;;;;;;2.45;0.90;;;;;;;18.17;54.03;98839.59;10434458;28;20045;-65
2023/09/03 18:36:51;;;;;;;3.00;1.00;;;;;;;18.07;54.45;98844.69;10447436;28;20120;-64
2023/09/03 18:42:12;;;;;;;3.10;1.08;;;;;;;17.89;54.53;98855.69;10447510;28;20080;-62
2023/09/03 18:47:32;;;;;;;2.22;0.95;;;;;;;17.73;54.69;98852.66;10447029;28;20068;-64
2023/09/03 18:52:53;;;;;;;1.92;0.70;;;;;;;17.73;54.84;98871.69;10461859;28;20048;-62
2023/09/03 18:58:14;;;;;;;3.67;1.10;;;;;;;17.63;54.91;98869.00;10461790;28;20069;-64
2023/09/03 19:03:35;;;;;;;2.83;0.90;;;;;;;17.61;54.70;98871.72;10425968;28;20098;-68
2023/09/03 19:08:55;;;;;;;2.72;0.77;;;;;;;17.60;55.26;98883.63;10427420;28;20079;-68
2023/09/03 19:14:16;;;;;;;3.53;1.02;;;;;;;17.48;54.58;98875.19;10445604;28;20037;-63
2023/09/03 19:19:37;;;;;;;1.95;1.00;;;;;;;17.43;54.68;98879.13;10460796;28;20452;-64
2023/09/03 19:24:58;;;;;;;2.05;1.02;;;;;;;17.36;54.63;98889.31;10432000;28;20049;-64
2023/09/03 19:30:19;;;;;;;1.92;1.00;;;;;;;17.28;54.75;98894.50;10460714;28;20088;-65
2023/09/03 19:35:40;;;;;;;2.28;0.98;;;;;;;17.16;55.07;98893.75;10460118;28;20504;-67
2023/09/03 19:41:00;;;;;;;3.13;0.70;;;;;;;17.14;55.31;98899.28;10460483;28;20037;-65
2023/09/03 19:46:21;;;;;;;2.13;0.80;;;;;;;17.08;55.50;98904.53;10459637;28;20123;-67
2023/09/03 19:51:43;;;;;;;3.17;1.13;;;;;;;16.99;55.66;98905.44;10458041;28;20069;-68
2023/09/03 19:57:04;;;;;;;2.78;1.17;;;;;;;16.94;55.65;98903.69;10432771;28;20117;-66
2023/09/03 20:02:25;;;;;;;1.92;1.00;;;;;;;16.83;55.73;98905.16;10419318;28;20077;-69
2023/09/03 20:07:47;;;;;;;2.65;0.90;;;;;;;16.74;56.69;98918.03;10417926;28;20049;-70
2023/09/03 20:13:09;;;;;;;3.53;0.70;;;;;;;16.70;56.26;98920.59;10402918;28;20057;-70
2023/09/03 20:18:30;;;;;;;4.60;0.85;;;;;;;16.63;56.36;98926.44;10438006;28;20130;-69
2023/09/03 20:23:51;;;;;;;2.30;1.08;;;;;;;16.56;56.44;98922.50;10443514;28;20069;-69
2023/09/03 20:29:14;;;;;;;1.92;0.70;;;;;;;16.54;56.59;98925.19;10457731;28;20041;-69
2023/09/03 20:34:36;;;;;;;2.58;0.80;;;;;;;16.49;56.71;98915.00;10443568;28;20068;-69
2023/09/03 20:39:57;;;;;;;1.75;0.70;;;;;;;16.47;56.86;98926.88;10443084;28;20052;-70
2023/09/03 20:45:21;;;;;;;2.53;0.90;;;;;;;16.50;56.78;98908.78;10457621;28;20511;-71
2023/09/03 20:50:45;;;;;;;2.67;1.00;;;;;;;16.45;56.53;98903.47;10403436;28;20041;-69
2023/09/03 20:56:10;;;;;;;4.25;0.70;;;;;;;16.43;56.97;98909.00;10432795;28;20072;-70
2023/09/03 21:01:31;;;;;;;1.65;0.60;;;;;;;16.43;57.06;98903.34;10444653;28;20045;-69
2023/09/03 21:06:51;;;;;;;2.92;0.70;;;;;;;16.46;56.98;98908.50;10409770;28;20478;-69
2023/09/03 21:12:12;;;;;;;2.03;0.60;;;;;;;16.52;57.10;98927.88;10408880;28;20467;-68
2023/09/03 21:17:33;;;;;;;6.80;0.60;;;;;;;16.50;56.93;98941.81;10439281;28;20079;-67
2023/09/03 21:22:54;;;;;;;1.63;0.55;;;;;;;16.44;56.84;98933.00;10409876;28;20064;-68
2023/09/03 21:28:15;;;;;;;2.90;0.60;;;;;;;16.35;57.16;98920.47;10423426;28;20116;-69
2023/09/03 21:33:35;;;;;;;2.45;0.70;;;;;;;16.32;57.07;98927.34;10454882;28;20041;-70
2023/09/03 21:38:56;;;;;;;4.43;0.60;;;;;;;16.37;57.36;98931.13;10457531;28;20120;-67
2023/09/03 21:44:18;;;;;;;1.77;0.60;;;;;;;16.43;57.24;98923.06;10464044;28;20068;-68
2023/09/03 21:49:40;;;;;;;2.22;0.57;;;;;;;16.50;57.24;98928.50;10449789;28;20479;-71
2023/09/03 21:55:00;;;;;;;2.42;0.50;;;;;;;16.58;57.20;98923.34;10463130;28;20044;-69
2023/09/03 22:00:21;;;;;;;2.65;0.68;;;;;;;16.61;57.29;98924.22;10449478;28;20522;-69
2023/09/03 22:05:42;;;;;;;1.60;0.60;;;;;;;16.57;57.13;98915.50;10462975;28;20056;-69
2023/09/03 22:11:03;;;;;;;1.52;0.70;;;;;;;16.43;57.22;98917.44;10462971;28;20041;-69
2023/09/03 22:16:24;;;;;;;3.40;0.65;;;;;;;16.27;57.49;98900.97;10448419;28;20037;-69
2023/09/03 22:21:44;;;;;;;2.42;0.60;;;;;;;16.20;57.53;98899.09;10448892;28;20124;-69
2023/09/03 22:27:05;;;;;;;3.00;0.50;;;;;;;16.19;57.81;98900.44;10448046;28;20040;-68
2023/09/03 22:32:26;;;;;;;1.45;0.60;;;;;;;16.25;58.23;98906.47;10434150;28;20497;-69
2023/09/03 22:37:47;;;;;;;3.92;0.60;;;;;;;16.37;57.66;98905.78;10447616;28;20061;-68
2023/09/03 22:43:07;;;;;;;1.60;0.50;;;;;;;16.48;57.24;98902.97;10434272;28;20113;-69
2023/09/03 22:48:28;;;;;;;2.58;0.70;;;;;;;16.52;57.44;98903.25;10433525;28;20052;-67
2023/09/03 22:53:49;;;;;;;3.28;0.60;;;;;;;16.58;57.27;98909.25;10461160;28;20447;-69
2023/09/03 22:59:10;;;;;;;3.25;0.73;;;;;;;16.67;57.10;98902.03;10447091;28;20069;-69
2023/09/03 23:04:31;;;;;;;1.55;0.75;;;;;;;16.64;57.32;98908.91;10457621;28;20171;-69
2023/09/03 23:09:52;;;;;;;1.33;0.60;;;;;;;16.66;57.33;98889.28;10443544;28;20102;-68
2023/09/03 23:15:14;;;;;;;3.88;1.13;;;;;;;16.67;57.61;98913.31;10460213;28;20466;-69
2023/09/03 23:20:35;;;;;;;2.17;0.73;;;;;;;16.65;57.51;98918.84;10460092;28;20461;-69
2023/09/03 23:25:56;;;;;;;1.90;0.50;;;;;;;16.58;57.55;98926.16;10460991;28;20498;-68
2023/09/03 23:31:17;;;;;;;2.55;0.70;;;;;;;16.56;57.46;98930.94;10445472;28;20080;-67
2023/09/03 23:36:37;;;;;;;3.60;0.85;;;;;;;16.50;57.27;98934.13;10445383;28;20116;-69
2023/09/03 23:41:58;;;;;;;1.38;0.57;;;;;;;16.34;57.79;98938.00;10460095;28;20045;-68
2023/09/03 23:47:19;;;;;;;5.63;0.82;;;;;;;16.19;58.15;98928.63;10444990;28;20094;-68
2023/09/03 23:52:40;;;;;;;1.55;0.60;;;;;;;16.02;58.33;98940.19;10459763;28;20052;-68
2023/09/03 23:58:01;;;;;;;3.22;0.68;;;;;;;15.90;58.55;98953.47;10444280;28;20041;-67
